createdAt,value
2023-04-09T00:02:36.411Z,99390.96
2023-04-09T00:05:17.441Z,99384.33
2023-04-09T00:08:09.702Z,99375.61
2023-04-09T00:10:50.253Z,99376.65
2023-04-09T00:13:42.276Z,99373.34
2023-04-09T00:16:34.421Z,99370.71
2023-04-09T00:19:14.717Z,99376.28
2023-04-09T00:22:06.776Z,99381.14
2023-04-09T00:24:58.778Z,99380.10
2023-04-09T00:27:33.371Z,99382.19
2023-04-09T00:30:25.846Z,99384.09
2023-04-09T00:33:17.774Z,99387.02
2023-04-09T00:36:10.181Z,99389.10
2023-04-09T00:38:48.593Z,99394.48
2023-04-09T00:41:29.422Z,99393.27
2023-04-09T00:44:11.453Z,99396.90
2023-04-09T00:46:55.028Z,99398.44
2023-04-09T00:49:47.114Z,99398.44
2023-04-09T00:52:39.155Z,99398.43
2023-04-09T00:55:23.623Z,99400.17
2023-04-09T00:58:16.622Z,99396.52
2023-04-09T01:01:08.672Z,99395.09
2023-04-09T01:04:01.003Z,99392.78
2023-04-09T01:06:56.913Z,99390.51
2023-04-09T01:09:55.468Z,99387.71
2023-04-09T01:13:02.671Z,99386.99
2023-04-09T01:15:58.223Z,99383.31
2023-04-09T01:18:54.459Z,99384.70
2023-04-09T01:21:47.230Z,99380.15
2023-04-09T01:24:53.803Z,99382.23
2023-04-09T01:27:45.891Z,99384.31
2023-04-09T01:30:38.330Z,99385.30
2023-04-09T01:33:32.729Z,99391.89
2023-04-09T01:36:25.814Z,99391.86
2023-04-09T01:39:18.315Z,99392.90
2023-04-09T01:42:12.745Z,99390.61
2023-04-09T01:45:06.695Z,99390.77
2023-04-09T01:47:59.044Z,99394.05
2023-04-09T01:50:52.107Z,99395.60
2023-04-09T01:53:44.416Z,99393.32
2023-04-09T01:56:44.903Z,99394.52
2023-04-09T01:59:36.872Z,99396.22
2023-04-09T02:02:38.156Z,99393.41
2023-04-09T02:05:37.090Z,99393.40
2023-04-09T02:08:26.232Z,99389.40
2023-04-09T02:11:19.641Z,99386.44
2023-04-09T02:14:13.099Z,99391.48
2023-04-09T02:17:05.950Z,99391.80
2023-04-09T02:19:58.180Z,99392.83
2023-04-09T02:22:50.372Z,99392.10
2023-04-09T02:25:42.432Z,99393.66
2023-04-09T02:28:34.421Z,99390.19
2023-04-09T02:31:26.529Z,99395.58
2023-04-09T02:34:18.493Z,99397.69
2023-04-09T02:37:10.617Z,99397.20
2023-04-09T02:39:45.623Z,99395.81
2023-04-09T02:42:26.752Z,99394.77
2023-04-09T02:45:18.863Z,99395.98
2023-04-09T02:48:10.994Z,99398.77
2023-04-09T02:50:46.150Z,99395.30
2023-04-09T02:53:40.681Z,99392.00
2023-04-09T02:56:17.835Z,99389.55
2023-04-09T02:59:09.817Z,99389.67
2023-04-09T03:02:01.823Z,99390.35
2023-04-09T03:04:54.090Z,99392.08
2023-04-09T03:07:29.070Z,99393.98
2023-04-09T03:10:04.178Z,99396.06
2023-04-09T03:12:56.200Z,99397.64
2023-04-09T03:15:30.877Z,99398.51
2023-04-09T03:18:05.506Z,99399.04
2023-04-09T03:20:41.990Z,99394.52
2023-04-09T03:23:16.782Z,99392.10
2023-04-09T03:26:08.891Z,99390.70
2023-04-09T03:29:01.125Z,99393.48
2023-04-09T03:31:53.045Z,99387.92
2023-04-09T03:34:45.011Z,99388.09
2023-04-09T03:37:37.071Z,99389.14
2023-04-09T03:40:13.702Z,99386.34
2023-04-09T03:42:48.242Z,99385.98
2023-04-09T03:45:40.230Z,99385.11
2023-04-09T03:48:32.209Z,99391.84
2023-04-09T03:51:24.184Z,99390.73
2023-04-09T03:54:16.374Z,99395.38
2023-04-09T03:57:08.458Z,99399.38
2023-04-09T04:00:00.493Z,99400.05
2023-04-09T04:02:52.778Z,99401.46
2023-04-09T04:05:44.985Z,99399.73
2023-04-09T04:08:37.044Z,99403.94
2023-04-09T04:11:29.037Z,99403.96
2023-04-09T04:14:21.161Z,99402.96
2023-04-09T04:17:13.293Z,99400.20
2023-04-09T04:20:05.772Z,99397.59
2023-04-09T04:22:57.683Z,99401.41
2023-04-09T04:25:49.664Z,99402.96
2023-04-09T04:28:31.413Z,99403.14
2023-04-09T04:31:23.417Z,99399.14
2023-04-09T04:34:15.406Z,99392.53
2023-04-09T04:37:07.394Z,99391.81
2023-04-09T04:39:59.932Z,99402.92
2023-04-09T04:42:34.562Z,99400.30
2023-04-09T04:45:26.547Z,99397.17
2023-04-09T04:48:18.508Z,99396.67
2023-04-09T04:51:10.518Z,99398.13
2023-04-09T04:54:02.592Z,99401.45
2023-04-09T04:56:54.587Z,99407.39
2023-04-09T04:59:46.665Z,99411.77
2023-04-09T05:02:28.945Z,99416.30
2023-04-09T05:05:21.055Z,99420.83
2023-04-09T05:08:13.195Z,99419.61
2023-04-09T05:11:05.360Z,99419.62
2023-04-09T05:13:57.360Z,99419.62
2023-04-09T05:16:49.500Z,99416.85
2023-04-09T05:19:41.593Z,99419.81
2023-04-09T05:22:33.606Z,99422.25
2023-04-09T05:25:25.704Z,99422.45
2023-04-09T05:28:08.135Z,99423.71
2023-04-09T05:31:00.355Z,99423.92
2023-04-09T05:33:52.877Z,99426.02
2023-04-09T05:36:44.951Z,99427.95
2023-04-09T05:39:36.912Z,99428.35
2023-04-09T05:42:29.019Z,99432.89
2023-04-09T05:45:21.104Z,99436.04
2023-04-09T05:48:13.123Z,99433.45
2023-04-09T05:50:56.162Z,99435.36
2023-04-09T05:53:48.191Z,99438.35
2023-04-09T05:56:40.296Z,99439.23
2023-04-09T05:59:32.328Z,99441.35
2023-04-09T06:02:24.916Z,99443.13
2023-04-09T06:05:17.303Z,99437.42
2023-04-09T06:08:09.292Z,99437.81
2023-04-09T06:10:56.369Z,99439.92
2023-04-09T06:13:38.887Z,99442.25
2023-04-09T06:16:30.852Z,99446.79
2023-04-09T06:19:12.411Z,99445.92
2023-04-09T06:22:04.430Z,99445.09
2023-04-09T06:24:56.442Z,99445.86
2023-04-09T06:27:39.696Z,99445.19
2023-04-09T06:30:28.151Z,99451.33
2023-04-09T06:33:20.342Z,99456.92
2023-04-09T06:36:12.406Z,99456.08
2023-04-09T06:39:04.498Z,99460.81
2023-04-09T06:41:56.572Z,99465.38
2023-04-09T06:44:48.655Z,99465.38
2023-04-09T06:47:41.014Z,99471.36
2023-04-09T06:50:33.131Z,99471.02
2023-04-09T06:53:10.339Z,99471.92
2023-04-09T06:56:02.570Z,99470.56
2023-04-09T06:58:54.368Z,99471.63
2023-04-09T07:01:47.706Z,99471.70
2023-04-09T07:04:22.733Z,99472.23
2023-04-09T07:07:14.970Z,99476.28
2023-04-09T07:10:08.323Z,99482.56
2023-04-09T07:13:00.532Z,99481.74
2023-04-09T07:15:52.609Z,99482.10
2023-04-09T07:18:44.605Z,99484.04
2023-04-09T07:21:26.534Z,99480.59
2023-04-09T07:24:03.914Z,99479.58
2023-04-09T07:26:56.322Z,99479.23
2023-04-09T07:29:48.648Z,99481.89
2023-04-09T07:32:40.713Z,99477.38
2023-04-09T07:35:34.701Z,99484.20
2023-04-09T07:38:28.822Z,99480.57
2023-04-09T07:41:20.871Z,99478.82
2023-04-09T07:44:13.684Z,99479.38
2023-04-09T07:47:07.524Z,99479.05
2023-04-09T07:49:59.663Z,99478.02
2023-04-09T07:52:51.753Z,99468.44
2023-04-09T07:55:43.898Z,99471.43
2023-04-09T07:58:19.198Z,99477.52
2023-04-09T08:01:11.222Z,99482.94
2023-04-09T08:04:03.934Z,99485.39
2023-04-09T08:06:56.284Z,99487.11
2023-04-09T08:09:48.829Z,99483.29
2023-04-09T08:12:40.809Z,99482.41
2023-04-09T08:15:32.893Z,99484.69
2023-04-09T08:18:24.860Z,99492.53
2023-04-09T08:20:59.765Z,99497.77
2023-04-09T08:23:51.733Z,99497.41
2023-04-09T08:26:44.767Z,99499.16
2023-04-09T08:29:36.886Z,99503.53
2023-04-09T08:32:28.885Z,99509.29
2023-04-09T08:35:06.660Z,99506.48
2023-04-09T08:38:00.149Z,99507.54
2023-04-09T08:40:52.285Z,99504.56
2023-04-09T08:43:57.021Z,99507.70
2023-04-09T08:46:51.159Z,99506.65
2023-04-09T08:49:43.352Z,99505.92
2023-04-09T08:52:37.812Z,99507.15
2023-04-09T08:55:31.181Z,99509.59
2023-04-09T08:58:09.498Z,99504.88
2023-04-09T09:01:02.404Z,99500.67
2023-04-09T09:04:00.854Z,99500.84
2023-04-09T09:06:55.438Z,99500.11
2023-04-09T09:09:57.010Z,99500.82
2023-04-09T09:12:49.202Z,99497.32
2023-04-09T09:15:41.229Z,99493.11
2023-04-09T09:18:42.597Z,99498.86
2023-04-09T09:21:36.318Z,99503.40
2023-04-09T09:24:20.276Z,99497.45
2023-04-09T09:26:58.849Z,99495.05
2023-04-09T09:29:44.904Z,99501.52
2023-04-09T09:32:37.721Z,99499.95
2023-04-09T09:35:18.620Z,99503.60
2023-04-09T09:38:05.912Z,99500.27
2023-04-09T09:40:57.891Z,99502.70
2023-04-09T09:43:44.038Z,99501.48
2023-04-09T09:46:38.645Z,99503.92
2023-04-09T09:49:30.731Z,99506.02
2023-04-09T09:52:14.303Z,99502.86
2023-04-09T09:55:09.197Z,99504.10
2023-04-09T09:58:03.631Z,99502.33
2023-04-09T10:00:57.499Z,99500.04
2023-04-09T10:03:50.974Z,99500.38
2023-04-09T10:06:46.059Z,99490.56
2023-04-09T10:09:41.435Z,99492.45
2023-04-09T10:12:31.058Z,99494.90
2023-04-09T10:15:13.880Z,99489.27
2023-04-09T10:18:06.028Z,99492.22
2023-04-09T10:21:03.141Z,99491.15
2023-04-09T10:23:43.119Z,99490.79
2023-04-09T10:26:37.357Z,99488.63
2023-04-09T10:29:31.459Z,99484.75
2023-04-09T10:32:26.643Z,99485.91
2023-04-09T10:35:28.930Z,99482.73
2023-04-09T10:38:36.324Z,99477.61
2023-04-09T10:41:32.042Z,99473.74
2023-04-09T10:44:25.390Z,99474.78
2023-04-09T10:47:34.821Z,99475.93
2023-04-09T10:50:30.756Z,99474.63
2023-04-09T10:53:27.682Z,99473.37
2023-04-09T10:56:02.643Z,99475.05
2023-04-09T10:58:54.614Z,99471.84
2023-04-09T11:01:36.928Z,99475.64
2023-04-09T11:04:38.050Z,99473.88
2023-04-09T11:07:32.133Z,99476.63
2023-04-09T11:10:24.248Z,99473.17
2023-04-09T11:13:17.613Z,99473.35
2023-04-09T11:15:55.457Z,99476.17
2023-04-09T11:18:31.490Z,99471.10
2023-04-09T11:21:27.735Z,99467.46
2023-04-09T11:24:21.312Z,99467.85
2023-04-09T11:27:13.594Z,99467.35
2023-04-09T11:30:06.435Z,99462.33
2023-04-09T11:32:58.563Z,99459.29
2023-04-09T11:35:37.431Z,99464.08
2023-04-09T11:38:14.979Z,99462.12
2023-04-09T11:41:07.150Z,99461.32
2023-04-09T11:43:59.154Z,99464.72
2023-04-09T11:46:51.995Z,99466.15
2023-04-09T11:49:45.117Z,99461.35
2023-04-09T11:52:37.859Z,99461.32
2023-04-09T11:55:31.879Z,99459.42
2023-04-09T11:58:26.475Z,99453.25
2023-04-09T12:01:18.514Z,99457.48
2023-04-09T12:04:11.227Z,99457.69
2023-04-09T12:07:03.501Z,99455.66
2023-04-09T12:09:55.470Z,99453.91
2023-04-09T12:12:49.033Z,99457.59
2023-04-09T12:15:43.541Z,99452.98
2023-04-09T12:18:38.490Z,99449.30
2023-04-09T12:21:47.896Z,99444.85
2023-04-09T12:24:40.003Z,99446.41
2023-04-09T12:27:33.955Z,99446.53
2023-04-09T12:30:26.286Z,99445.38
2023-04-09T12:33:18.316Z,99444.89
2023-04-09T12:36:10.590Z,99437.45
2023-04-09T12:39:02.675Z,99437.26
2023-04-09T12:41:39.639Z,99437.34
2023-04-09T12:44:33.102Z,99432.51
2023-04-09T12:47:25.153Z,99433.12
2023-04-09T12:50:10.496Z,99429.36
2023-04-09T12:53:02.421Z,99426.66
2023-04-09T12:55:54.454Z,99424.17
2023-04-09T12:58:46.390Z,99419.55
2023-04-09T13:01:39.230Z,99417.63
2023-04-09T13:04:28.811Z,99413.77
2023-04-09T13:07:21.445Z,99417.00
2023-04-09T13:10:13.579Z,99415.11
2023-04-09T13:13:06.154Z,99411.41
2023-04-09T13:15:58.159Z,99411.67
2023-04-09T13:18:41.082Z,99406.33
2023-04-09T13:21:33.111Z,99408.73
2023-04-09T13:24:25.176Z,99400.95
2023-04-09T13:27:09.790Z,99406.20
2023-04-09T13:30:01.928Z,99410.86
2023-04-09T13:32:53.931Z,99410.55
2023-04-09T13:35:46.780Z,99414.21
2023-04-09T13:38:39.385Z,99419.13
2023-04-09T13:41:31.996Z,99425.23
2023-04-09T13:44:24.110Z,99421.27
2023-04-09T13:47:17.860Z,99428.48
2023-04-09T13:50:01.485Z,99437.19
2023-04-09T13:52:53.550Z,99437.13
2023-04-09T13:55:41.561Z,99444.75
2023-04-09T13:58:23.715Z,99449.05
2023-04-09T14:00:58.239Z,99451.84
2023-04-09T14:03:52.584Z,99449.13
2023-04-09T14:06:45.156Z,99446.91
2023-04-09T14:09:37.197Z,99444.52
2023-04-09T14:12:29.183Z,99438.59
2023-04-09T14:15:22.100Z,99435.63
2023-04-09T14:18:14.127Z,99434.33
2023-04-09T14:21:08.723Z,99430.30
2023-04-09T14:24:02.192Z,99428.38
2023-04-09T14:26:54.187Z,99424.35
2023-04-09T14:29:46.213Z,99422.94
2023-04-09T14:32:38.475Z,99419.90
2023-04-09T14:35:30.608Z,99418.95
2023-04-09T14:38:04.380Z,99413.77
2023-04-09T14:40:56.442Z,99414.52
2023-04-09T14:43:48.371Z,99416.59
2023-04-09T14:46:40.465Z,99415.10
2023-04-09T14:49:32.571Z,99406.10
2023-04-09T14:52:24.591Z,99409.39
2023-04-09T14:55:16.731Z,99407.22
2023-04-09T14:58:08.697Z,99407.27
2023-04-09T15:01:00.697Z,99408.33
2023-04-09T15:03:52.832Z,99406.98
2023-04-09T15:06:45.366Z,99406.86
2023-04-09T15:09:37.366Z,99407.48
2023-04-09T15:12:29.824Z,99408.41
2023-04-09T15:15:21.838Z,99410.13
2023-04-09T15:18:05.920Z,99409.96
2023-04-09T15:20:58.196Z,99402.87
2023-04-09T15:23:51.055Z,99401.39
2023-04-09T15:26:43.205Z,99403.66
2023-04-09T15:29:36.261Z,99408.18
2023-04-09T15:32:29.587Z,99414.02
2023-04-09T15:35:25.119Z,99414.34
2023-04-09T15:38:17.583Z,99412.98
2023-04-09T15:41:10.494Z,99413.86
2023-04-09T15:44:02.549Z,99413.23
2023-04-09T15:46:38.452Z,99415.80
2023-04-09T15:49:30.594Z,99415.74
2023-04-09T15:52:02.629Z,99418.82
2023-04-09T15:54:55.049Z,99420.86
2023-04-09T15:57:47.160Z,99420.23
2023-04-09T16:00:39.174Z,99417.89
2023-04-09T16:03:20.551Z,99425.89
2023-04-09T16:06:13.058Z,99421.02
2023-04-09T16:09:05.246Z,99422.00
2023-04-09T16:11:57.279Z,99427.86
2023-04-09T16:14:49.293Z,99427.77
2023-04-09T16:17:41.394Z,99429.76
2023-04-09T16:20:33.448Z,99430.20
2023-04-09T16:23:27.037Z,99430.64
2023-04-09T16:26:19.034Z,99431.42
2023-04-09T16:29:11.194Z,99433.27
2023-04-09T16:32:03.994Z,99430.89
2023-04-09T16:35:00.433Z,99432.35
2023-04-09T16:37:52.999Z,99434.36
2023-04-09T16:40:45.962Z,99435.47
2023-04-09T16:43:38.342Z,99439.92
2023-04-09T16:46:30.933Z,99443.45
2023-04-09T16:49:23.339Z,99443.30
2023-04-09T16:52:15.618Z,99441.27
2023-04-09T16:55:08.987Z,99439.72
2023-04-09T16:58:01.647Z,99440.27
2023-04-09T17:00:53.629Z,99443.29
2023-04-09T17:03:46.106Z,99440.86
2023-04-09T17:06:35.776Z,99443.70
2023-04-09T17:09:27.836Z,99444.77
2023-04-09T17:12:04.870Z,99446.54
2023-04-09T17:14:57.920Z,99448.50
2023-04-09T17:17:53.092Z,99458.70
2023-04-09T17:20:45.083Z,99457.00
2023-04-09T17:23:37.875Z,99458.23
2023-04-09T17:26:30.394Z,99457.41
2023-04-09T17:29:22.611Z,99460.73
2023-04-09T17:32:14.675Z,99464.10
2023-04-09T17:35:08.071Z,99463.09
2023-04-09T17:38:00.232Z,99463.66
2023-04-09T17:40:54.067Z,99468.95
2023-04-09T17:43:46.109Z,99472.84
2023-04-09T17:46:39.169Z,99475.13
2023-04-09T17:49:11.892Z,99482.15
2023-04-09T17:51:46.659Z,99481.65
2023-04-09T17:54:39.141Z,99488.48
2023-04-09T17:57:13.887Z,99487.79
2023-04-09T17:59:57.318Z,99492.35
2023-04-09T18:02:52.339Z,99492.34
2023-04-09T18:05:45.064Z,99494.98
2023-04-09T18:08:37.479Z,99498.82
2023-04-09T18:11:15.527Z,99500.20
2023-04-09T18:14:08.099Z,99500.05
2023-04-09T18:17:08.441Z,99503.00
2023-04-09T18:19:45.711Z,99505.10
2023-04-09T18:22:22.745Z,99505.79
2023-04-09T18:25:15.006Z,99507.70
2023-04-09T18:27:52.063Z,99511.86
2023-04-09T18:30:44.523Z,99511.14
2023-04-09T18:33:37.054Z,99510.63
2023-04-09T18:36:29.240Z,99518.30
2023-04-09T18:39:07.059Z,99520.05
2023-04-09T18:41:59.582Z,99518.79
2023-04-09T18:44:51.598Z,99523.50
2023-04-09T18:47:44.037Z,99524.02
2023-04-09T18:50:21.521Z,99526.47
2023-04-09T18:53:05.571Z,99529.42
2023-04-09T18:55:57.577Z,99533.60
2023-04-09T18:58:51.836Z,99531.66
2023-04-09T19:01:44.207Z,99532.53
2023-04-09T19:04:39.835Z,99529.74
2023-04-09T19:07:33.616Z,99530.62
2023-04-09T19:10:22.220Z,99529.21
2023-04-09T19:12:59.387Z,99528.70
2023-04-09T19:15:51.382Z,99527.66
2023-04-09T19:18:26.630Z,99534.09
2023-04-09T19:21:18.653Z,99539.67
2023-04-09T19:24:10.971Z,99538.12
2023-04-09T19:27:09.115Z,99542.13
2023-04-09T19:30:01.159Z,99547.01
2023-04-09T19:32:38.689Z,99546.31
2023-04-09T19:35:32.968Z,99545.10
2023-04-09T19:38:25.394Z,99548.96
2023-04-09T19:41:17.574Z,99548.09
2023-04-09T19:44:07.403Z,99548.79
2023-04-09T19:46:59.486Z,99547.23
2023-04-09T19:49:41.574Z,99546.35
2023-04-09T19:52:33.781Z,99548.80
2023-04-09T19:55:26.316Z,99552.47
2023-04-09T19:58:18.447Z,99550.05
2023-04-09T20:01:10.712Z,99550.74
2023-04-09T20:04:03.041Z,99553.71
2023-04-09T20:06:55.735Z,99550.74
2023-04-09T20:09:33.059Z,99554.59
2023-04-09T20:12:08.766Z,99552.31
2023-04-09T20:15:02.812Z,99551.27
2023-04-09T20:17:54.793Z,99551.11
2023-04-09T20:20:46.904Z,99553.56
2023-04-09T20:23:39.003Z,99549.36
2023-04-09T20:26:31.136Z,99550.77
2023-04-09T20:29:03.109Z,99549.73
2023-04-09T20:31:55.565Z,99551.46
2023-04-09T20:34:47.789Z,99551.83
2023-04-09T20:37:24.876Z,99547.11
2023-04-09T20:40:03.242Z,99547.80
2023-04-09T20:42:55.546Z,99551.66
2023-04-09T20:45:47.695Z,99549.76
2023-04-09T20:48:39.834Z,99553.95
2023-04-09T20:51:23.359Z,99553.77
2023-04-09T20:54:17.935Z,99557.09
2023-04-09T20:57:10.622Z,99554.99
2023-04-09T21:00:04.554Z,99556.73
2023-04-09T21:02:56.791Z,99558.66
2023-04-09T21:05:48.903Z,99554.83
2023-04-09T21:08:29.682Z,99560.74
2023-04-09T21:11:21.635Z,99559.70
2023-04-09T21:14:14.631Z,99558.83
2023-04-09T21:17:06.731Z,99559.01
2023-04-09T21:19:58.791Z,99562.66
2023-04-09T21:22:50.815Z,99563.34
2023-04-09T21:25:43.051Z,99559.67
2023-04-09T21:28:26.279Z,99563.34
2023-04-09T21:31:18.378Z,99565.43
2023-04-09T21:34:10.438Z,99564.03
2023-04-09T21:37:04.581Z,99562.95
2023-04-09T21:39:56.509Z,99564.00
2023-04-09T21:42:48.496Z,99565.75
2023-04-09T21:45:21.097Z,99564.88
2023-04-09T21:48:13.769Z,99565.05
2023-04-09T21:51:09.729Z,99563.83
2023-04-09T21:53:52.071Z,99564.18
2023-04-09T21:56:44.047Z,99567.85
2023-04-09T21:59:37.084Z,99569.94
2023-04-09T22:02:29.740Z,99568.71
2023-04-09T22:05:21.815Z,99568.19
2023-04-09T22:08:13.837Z,99563.30
2023-04-09T22:11:06.126Z,99569.58
2023-04-09T22:13:58.237Z,99572.52
2023-04-09T22:16:40.925Z,99571.48
2023-04-09T22:19:33.895Z,99573.91
2023-04-09T22:22:25.903Z,99574.27
2023-04-09T22:25:17.883Z,99568.67
2023-04-09T22:28:09.861Z,99569.38
2023-04-09T22:31:02.469Z,99567.80
2023-04-09T22:33:54.474Z,99571.11
2023-04-09T22:36:46.466Z,99571.98
2023-04-09T22:39:38.498Z,99576.00
2023-04-09T22:42:30.565Z,99577.22
2023-04-09T22:45:22.638Z,99574.23
2023-04-09T22:48:14.909Z,99574.22
2023-04-09T22:51:07.853Z,99580.15
2023-04-09T22:53:59.885Z,99577.52
2023-04-09T22:56:41.989Z,99577.02
2023-04-09T22:59:39.714Z,99572.65
2023-04-09T23:02:33.064Z,99572.83
2023-04-09T23:05:25.441Z,99571.61
2023-04-09T23:08:17.469Z,99568.45
2023-04-09T23:11:10.359Z,99567.40
2023-04-09T23:14:02.724Z,99567.90
2023-04-09T23:16:54.737Z,99567.38
2023-04-09T23:19:46.716Z,99563.88
2023-04-09T23:22:28.700Z,99562.31
2023-04-09T23:25:21.794Z,99565.27
2023-04-09T23:27:56.348Z,99565.10
2023-04-09T23:30:48.299Z,99569.46
2023-04-09T23:33:40.379Z,99569.11
2023-04-09T23:36:32.674Z,99558.48
2023-04-09T23:39:24.696Z,99557.60
2023-04-09T23:42:16.727Z,99549.94
2023-04-09T23:45:10.381Z,99550.45
2023-04-09T23:48:03.273Z,99547.66
2023-04-09T23:50:55.349Z,99542.42
2023-04-09T23:53:47.710Z,99539.44
2023-04-09T23:56:23.117Z,99542.74
2023-04-09T23:59:00.614Z,99540.64
